createdAt,value
2022-12-31T00:02:12.874Z,97408.06
2022-12-31T00:04:44.609Z,97419.38
2022-12-31T00:07:16.291Z,97404.63
2022-12-31T00:09:47.941Z,97393.66
2022-12-31T00:12:19.616Z,97388.13
2022-12-31T00:14:51.294Z,97400.81
2022-12-31T00:17:22.922Z,97394.09
2022-12-31T00:19:54.500Z,97390.25
2022-12-31T00:22:26.050Z,97401.81
2022-12-31T00:24:57.621Z,97394.13
2022-12-31T00:27:33.271Z,97402.25
2022-12-31T00:30:05.237Z,97386.03
2022-12-31T00:32:36.868Z,97385.56
2022-12-31T00:35:08.934Z,97384.97
2022-12-31T00:37:40.588Z,97388.94
2022-12-31T00:40:12.264Z,97393.22
2022-12-31T00:42:44.664Z,97388.53
2022-12-31T00:45:17.062Z,97392.13
2022-12-31T00:47:48.748Z,97389.09
2022-12-31T00:50:20.328Z,97388.63
2022-12-31T00:52:51.904Z,97382.69
2022-12-31T00:55:23.464Z,97389.94
2022-12-31T00:57:55.042Z,97389.72
2022-12-31T01:00:26.613Z,97386.97
2022-12-31T01:02:58.335Z,97381.84
2022-12-31T01:05:31.141Z,97390.06
2022-12-31T01:08:03.501Z,97389.53
2022-12-31T01:10:35.092Z,97378.88
2022-12-31T01:13:07.090Z,97376.91
2022-12-31T01:15:39.872Z,97379.25
2022-12-31T01:18:11.553Z,97388.09
2022-12-31T01:20:44.769Z,97393.00
2022-12-31T01:23:16.371Z,97386.88
2022-12-31T01:25:47.965Z,97380.81
2022-12-31T01:28:19.548Z,97387.53
2022-12-31T01:30:51.146Z,97388.81
2022-12-31T01:33:27.559Z,97401.84
2022-12-31T01:36:08.130Z,97396.25
2022-12-31T01:38:41.127Z,97399.84
2022-12-31T01:41:15.452Z,97408.88
2022-12-31T01:43:53.421Z,97406.31
2022-12-31T01:46:51.879Z,97405.25
2022-12-31T01:49:41.566Z,97400.78
2022-12-31T01:52:20.107Z,97402.22
2022-12-31T01:54:57.824Z,97402.88
2022-12-31T01:57:30.879Z,97408.88
2022-12-31T02:00:05.256Z,97412.22
2022-12-31T02:02:36.931Z,97415.78
2022-12-31T02:05:31.620Z,97421.75
2022-12-31T02:08:06.747Z,97424.34
2022-12-31T02:10:38.631Z,97412.50
2022-12-31T02:13:10.735Z,97402.88
2022-12-31T02:15:45.360Z,97403.66
2022-12-31T02:18:23.020Z,97399.56
2022-12-31T02:21:23.631Z,97399.47
2022-12-31T02:24:16.833Z,97398.66
2022-12-31T02:27:01.857Z,97410.09
2022-12-31T02:30:03.705Z,97407.38
2022-12-31T02:32:42.883Z,97409.69
2022-12-31T02:35:34.668Z,97418.56
2022-12-31T02:38:14.182Z,97420.47
2022-12-31T02:40:45.985Z,97438.72
2022-12-31T02:43:17.573Z,97438.81
2022-12-31T02:46:13.382Z,97428.78
2022-12-31T02:49:20.669Z,97420.81
2022-12-31T02:52:15.447Z,97411.41
2022-12-31T02:55:11.097Z,97413.22
2022-12-31T02:58:03.131Z,97421.13
2022-12-31T03:00:45.152Z,97416.41
2022-12-31T03:03:20.317Z,97419.97
2022-12-31T03:05:52.551Z,97411.06
2022-12-31T03:08:26.297Z,97416.41
2022-12-31T03:10:57.847Z,97410.16
2022-12-31T03:13:29.444Z,97403.38
2022-12-31T03:16:01.039Z,97412.78
2022-12-31T03:18:32.694Z,97400.13
2022-12-31T03:21:12.528Z,97407.19
2022-12-31T03:23:44.809Z,97402.97
2022-12-31T03:26:16.413Z,97412.06
2022-12-31T03:28:48.178Z,97402.28
2022-12-31T03:31:19.807Z,97403.16
2022-12-31T03:33:51.624Z,97406.44
2022-12-31T03:36:23.271Z,97405.09
2022-12-31T03:38:54.921Z,97407.56
2022-12-31T03:41:26.595Z,97402.75
2022-12-31T03:43:58.253Z,97399.38
2022-12-31T03:46:29.870Z,97404.56
2022-12-31T03:49:01.542Z,97399.81
2022-12-31T03:51:33.212Z,97389.81
2022-12-31T03:54:05.101Z,97400.28
2022-12-31T03:56:36.767Z,97408.09
2022-12-31T03:59:08.423Z,97422.53
2022-12-31T04:01:40.056Z,97423.00
2022-12-31T04:04:11.781Z,97425.22
2022-12-31T04:06:43.356Z,97425.00
2022-12-31T04:09:15.048Z,97421.75
2022-12-31T04:11:46.705Z,97426.31
2022-12-31T04:14:19.045Z,97419.97
2022-12-31T04:16:50.761Z,97414.84
2022-12-31T04:19:22.388Z,97411.06
2022-12-31T04:21:54.030Z,97410.56
2022-12-31T04:24:25.713Z,97407.16
2022-12-31T04:27:03.620Z,97407.47
2022-12-31T04:29:38.961Z,97410.66
2022-12-31T04:32:10.939Z,97407.41
2022-12-31T04:34:42.650Z,97406.41
2022-12-31T04:37:14.325Z,97417.31
2022-12-31T04:39:46.007Z,97414.19
2022-12-31T04:42:17.547Z,97417.81
2022-12-31T04:44:49.202Z,97409.81
2022-12-31T04:47:23.840Z,97412.41
2022-12-31T04:49:55.893Z,97418.41
2022-12-31T04:52:27.575Z,97410.66
2022-12-31T04:54:59.422Z,97407.50
2022-12-31T04:57:31.143Z,97410.44
2022-12-31T05:00:02.877Z,97414.97
2022-12-31T05:02:34.675Z,97423.66
2022-12-31T05:05:06.907Z,97420.72
2022-12-31T05:07:38.550Z,97414.31
2022-12-31T05:10:10.172Z,97410.06
2022-12-31T05:12:43.189Z,97411.59
2022-12-31T05:15:15.080Z,97415.94
2022-12-31T05:17:46.671Z,97434.19
2022-12-31T05:20:18.227Z,97428.28
2022-12-31T05:22:49.869Z,97433.66
2022-12-31T05:25:21.589Z,97422.31
2022-12-31T05:27:53.173Z,97417.44
2022-12-31T05:30:25.207Z,97409.13
2022-12-31T05:32:57.208Z,97408.31
2022-12-31T05:35:29.104Z,97403.09
2022-12-31T05:38:01.831Z,97408.25
2022-12-31T05:40:33.448Z,97419.72
2022-12-31T05:43:05.122Z,97422.88
2022-12-31T05:45:37.625Z,97427.84
2022-12-31T05:48:09.211Z,97426.88
2022-12-31T05:50:40.892Z,97430.38
2022-12-31T05:53:13.242Z,97440.66
2022-12-31T05:55:47.132Z,97431.38
2022-12-31T05:58:18.787Z,97432.72
2022-12-31T06:00:51.855Z,97436.16
2022-12-31T06:03:23.464Z,97433.56
2022-12-31T06:05:55.073Z,97442.16
2022-12-31T06:08:26.665Z,97437.53
2022-12-31T06:10:58.253Z,97440.28
2022-12-31T06:13:29.998Z,97448.38
2022-12-31T06:16:06.823Z,97441.09
2022-12-31T06:18:38.551Z,97435.09
2022-12-31T06:21:10.167Z,97436.00
2022-12-31T06:23:41.767Z,97437.22
2022-12-31T06:26:13.853Z,97440.50
2022-12-31T06:28:45.586Z,97440.31
2022-12-31T06:31:17.451Z,97437.41
2022-12-31T06:33:49.049Z,97449.56
2022-12-31T06:36:20.734Z,97448.69
2022-12-31T06:38:53.235Z,97450.22
2022-12-31T06:41:24.928Z,97449.31
2022-12-31T06:43:56.711Z,97449.88
2022-12-31T06:46:30.805Z,97458.16
2022-12-31T06:49:02.847Z,97451.34
2022-12-31T06:51:34.507Z,97457.69
2022-12-31T06:54:06.389Z,97466.56
2022-12-31T06:56:38.380Z,97459.75
2022-12-31T06:59:24.976Z,97456.63
2022-12-31T07:02:15.327Z,97457.94
2022-12-31T07:05:08.058Z,97452.84
2022-12-31T07:07:55.231Z,97455.06
2022-12-31T07:11:14.743Z,97452.63
2022-12-31T07:14:16.659Z,97454.56
2022-12-31T07:16:57.258Z,97454.09
2022-12-31T07:19:57.467Z,97451.44
2022-12-31T07:22:29.758Z,97457.13
2022-12-31T07:25:01.607Z,97452.41
2022-12-31T07:27:50.800Z,97457.09
2022-12-31T07:30:39.344Z,97468.06
2022-12-31T07:33:33.808Z,97473.94
2022-12-31T07:36:32.533Z,97468.06
2022-12-31T07:39:20.761Z,97481.28
2022-12-31T07:42:26.450Z,97482.28
2022-12-31T07:45:40.704Z,97488.34
2022-12-31T07:48:27.481Z,97479.94
2022-12-31T07:50:59.440Z,97480.72
2022-12-31T07:53:31.421Z,97473.56
2022-12-31T07:56:08.822Z,97469.22
2022-12-31T07:59:08.072Z,97468.47
2022-12-31T08:01:57.444Z,97470.06
2022-12-31T08:04:39.175Z,97459.75
2022-12-31T08:07:36.790Z,97457.81
2022-12-31T08:10:34.289Z,97463.09
2022-12-31T08:13:10.763Z,97473.13
2022-12-31T08:15:42.603Z,97468.97
2022-12-31T08:18:14.456Z,97471.47
2022-12-31T08:21:14.426Z,97473.19
2022-12-31T08:23:57.225Z,97462.34
2022-12-31T08:26:50.986Z,97467.19
2022-12-31T08:29:27.288Z,97464.22
2022-12-31T08:32:43.128Z,97481.81
2022-12-31T08:35:32.744Z,97486.75
2022-12-31T08:38:48.954Z,97493.47
2022-12-31T08:41:23.561Z,97487.91
2022-12-31T08:44:13.689Z,97484.31
2022-12-31T08:47:03.323Z,97481.59
2022-12-31T08:49:35.729Z,97484.69
2022-12-31T08:52:20.047Z,97486.19
2022-12-31T08:54:52.614Z,97478.22
2022-12-31T08:57:33.216Z,97485.06
2022-12-31T09:00:13.447Z,97484.66
2022-12-31T09:03:05.080Z,97485.28
2022-12-31T09:05:45.449Z,97482.59
2022-12-31T09:08:26.703Z,97483.63
2022-12-31T09:11:01.804Z,97482.81
2022-12-31T09:14:11.096Z,97489.00
2022-12-31T09:16:56.129Z,97483.69
2022-12-31T09:19:27.960Z,97482.56
2022-12-31T09:21:59.826Z,97493.81
2022-12-31T09:24:32.074Z,97499.94
2022-12-31T09:27:27.901Z,97496.25
2022-12-31T09:30:12.869Z,97493.56
2022-12-31T09:32:54.014Z,97500.09
2022-12-31T09:35:56.332Z,97482.44
2022-12-31T09:38:46.656Z,97494.47
2022-12-31T09:41:41.795Z,97478.63
2022-12-31T09:44:46.804Z,97473.22
2022-12-31T09:47:36.799Z,97473.25
2022-12-31T09:50:11.136Z,97470.00
2022-12-31T09:52:46.001Z,97461.94
2022-12-31T09:55:39.020Z,97463.66
2022-12-31T09:58:37.140Z,97467.41
2022-12-31T10:01:17.912Z,97459.91
2022-12-31T10:03:52.631Z,97458.44
2022-12-31T10:07:00.682Z,97461.00
2022-12-31T10:09:50.697Z,97448.81
2022-12-31T10:12:28.256Z,97456.66
2022-12-31T10:15:37.254Z,97445.16
2022-12-31T10:18:27.872Z,97438.72
2022-12-31T10:21:26.584Z,97447.41
2022-12-31T10:24:39.203Z,97433.47
2022-12-31T10:27:32.085Z,97434.31
2022-12-31T10:30:13.276Z,97426.41
2022-12-31T10:32:56.993Z,97431.53
2022-12-31T10:35:42.126Z,97427.59
2022-12-31T10:38:51.359Z,97434.09
2022-12-31T10:41:52.420Z,97422.63
2022-12-31T10:45:05.738Z,97414.34
2022-12-31T10:47:49.460Z,97413.63
2022-12-31T10:50:35.991Z,97416.00
2022-12-31T10:53:27.073Z,97403.78
2022-12-31T10:56:36.275Z,97403.00
2022-12-31T10:59:32.825Z,97399.06
2022-12-31T11:02:16.542Z,97396.81
2022-12-31T11:05:00.398Z,97403.88
2022-12-31T11:07:52.199Z,97397.81
2022-12-31T11:10:45.110Z,97382.06
2022-12-31T11:13:58.800Z,97393.38
2022-12-31T11:16:56.636Z,97375.38
2022-12-31T11:20:05.658Z,97383.09
2022-12-31T11:22:56.156Z,97379.28
2022-12-31T11:25:39.224Z,97377.38
2022-12-31T11:28:38.790Z,97369.84
2022-12-31T11:31:36.471Z,97358.69
2022-12-31T11:34:28.540Z,97362.31
2022-12-31T11:37:32.858Z,97346.63
2022-12-31T11:40:38.430Z,97337.22
2022-12-31T11:43:45.145Z,97343.34
2022-12-31T11:46:19.669Z,97325.66
2022-12-31T11:49:15.383Z,97323.50
2022-12-31T11:52:27.379Z,97323.47
2022-12-31T11:55:18.140Z,97314.44
2022-12-31T11:57:52.018Z,97308.47
2022-12-31T12:00:26.852Z,97312.22
2022-12-31T12:03:03.652Z,97313.09
2022-12-31T12:05:36.435Z,97303.50
2022-12-31T12:08:08.053Z,97308.38
2022-12-31T12:10:47.147Z,97307.09
2022-12-31T12:13:27.710Z,97296.72
2022-12-31T12:16:07.432Z,97284.03
2022-12-31T12:18:46.535Z,97283.63
2022-12-31T12:21:22.894Z,97288.88
2022-12-31T12:24:28.187Z,97289.66
2022-12-31T12:26:59.844Z,97283.84
2022-12-31T12:29:34.111Z,97274.88
2022-12-31T12:32:15.986Z,97285.09
2022-12-31T12:34:50.030Z,97279.44
2022-12-31T12:37:24.765Z,97275.00
2022-12-31T12:40:04.056Z,97273.44
2022-12-31T12:42:35.686Z,97278.50
2022-12-31T12:45:15.548Z,97286.09
2022-12-31T12:48:01.260Z,97272.16
2022-12-31T12:50:44.672Z,97278.81
2022-12-31T12:53:51.129Z,97274.03
2022-12-31T12:56:46.671Z,97285.69
2022-12-31T12:59:46.240Z,97282.81
2022-12-31T13:02:30.016Z,97280.66
2022-12-31T13:05:30.894Z,97270.16
2022-12-31T13:08:05.549Z,97271.81
2022-12-31T13:10:59.813Z,97270.41
2022-12-31T13:13:43.612Z,97268.66
2022-12-31T13:16:20.983Z,97269.47
2022-12-31T13:19:13.741Z,97271.00
2022-12-31T13:21:45.970Z,97258.69
2022-12-31T13:24:42.592Z,97262.81
2022-12-31T13:27:35.924Z,97272.41
2022-12-31T13:30:18.017Z,97262.63
2022-12-31T13:33:03.944Z,97266.84
2022-12-31T13:35:51.960Z,97270.63
2022-12-31T13:38:34.093Z,97273.31
2022-12-31T13:41:24.200Z,97270.63
2022-12-31T13:44:28.828Z,97273.19
2022-12-31T13:47:15.437Z,97285.88
2022-12-31T13:49:57.252Z,97279.47
2022-12-31T13:52:37.722Z,97289.47
2022-12-31T13:55:20.430Z,97290.25
2022-12-31T13:57:54.001Z,97290.31
2022-12-31T14:00:34.116Z,97300.78
2022-12-31T14:03:20.988Z,97294.59
2022-12-31T14:06:00.985Z,97287.34
2022-12-31T14:08:32.843Z,97285.63
2022-12-31T14:11:33.093Z,97296.06
2022-12-31T14:14:29.862Z,97285.44
2022-12-31T14:17:04.390Z,97295.81
2022-12-31T14:20:12.050Z,97287.69
2022-12-31T14:23:25.670Z,97300.63
2022-12-31T14:26:05.949Z,97301.13
2022-12-31T14:29:04.546Z,97302.97
2022-12-31T14:31:36.246Z,97298.63
2022-12-31T14:34:32.096Z,97300.31
2022-12-31T14:37:09.353Z,97309.81
2022-12-31T14:39:58.935Z,97314.13
2022-12-31T14:43:17.095Z,97313.94
2022-12-31T14:46:05.917Z,97308.66
2022-12-31T14:49:16.059Z,97304.13
2022-12-31T14:51:47.858Z,97319.25
2022-12-31T14:54:29.315Z,97309.59
2022-12-31T14:57:16.344Z,97320.59
2022-12-31T14:59:55.613Z,97324.72
2022-12-31T15:02:34.584Z,97322.34
2022-12-31T15:05:12.558Z,97325.72
2022-12-31T15:08:02.035Z,97318.31
2022-12-31T15:10:46.667Z,97326.25
2022-12-31T15:13:52.136Z,97325.34
2022-12-31T15:16:41.842Z,97322.00
2022-12-31T15:19:19.123Z,97328.16
2022-12-31T15:22:21.709Z,97318.72
2022-12-31T15:24:53.558Z,97316.22
2022-12-31T15:27:38.294Z,97317.72
2022-12-31T15:30:29.831Z,97325.13
2022-12-31T15:33:07.121Z,97320.03
2022-12-31T15:35:54.775Z,97326.03
2022-12-31T15:38:36.254Z,97333.28
2022-12-31T15:41:18.954Z,97326.66
2022-12-31T15:44:06.531Z,97321.63
2022-12-31T15:46:42.606Z,97328.94
2022-12-31T15:49:21.072Z,97332.53
2022-12-31T15:52:13.846Z,97331.66
2022-12-31T15:54:49.748Z,97333.03
2022-12-31T15:57:43.172Z,97332.72
2022-12-31T16:00:18.231Z,97335.31
2022-12-31T16:02:54.242Z,97342.25
2022-12-31T16:05:27.733Z,97333.84
2022-12-31T16:08:00.686Z,97342.59
2022-12-31T16:10:33.200Z,97344.72
2022-12-31T16:13:04.928Z,97343.53
2022-12-31T16:15:36.981Z,97346.50
2022-12-31T16:18:14.700Z,97352.97
2022-12-31T16:20:50.638Z,97359.34
2022-12-31T16:23:25.010Z,97366.59
2022-12-31T16:26:01.388Z,97365.25
2022-12-31T16:28:34.860Z,97364.75
2022-12-31T16:31:15.162Z,97370.94
2022-12-31T16:33:47.457Z,97367.25
2022-12-31T16:36:23.830Z,97372.88
2022-12-31T16:39:23.439Z,97375.72
2022-12-31T16:42:13.284Z,97373.97
2022-12-31T16:44:46.139Z,97370.59
2022-12-31T16:47:22.883Z,97382.13
2022-12-31T16:50:01.996Z,97381.28
2022-12-31T16:52:39.445Z,97385.44
2022-12-31T16:55:25.437Z,97383.38
2022-12-31T16:58:19.826Z,97387.16
2022-12-31T17:00:53.514Z,97383.81
2022-12-31T17:03:28.873Z,97376.44
2022-12-31T17:06:17.326Z,97380.28
2022-12-31T17:08:58.106Z,97377.03
2022-12-31T17:11:49.616Z,97380.06
2022-12-31T17:14:27.498Z,97384.72
2022-12-31T17:17:04.196Z,97381.78
2022-12-31T17:19:49.781Z,97387.44
2022-12-31T17:22:37.001Z,97384.97
2022-12-31T17:25:23.886Z,97387.44
2022-12-31T17:28:18.863Z,97387.00
2022-12-31T17:30:51.261Z,97389.59
2022-12-31T17:33:22.811Z,97375.94
2022-12-31T17:36:15.208Z,97381.50
2022-12-31T17:38:47.089Z,97376.00
2022-12-31T17:41:27.430Z,97380.31
2022-12-31T17:43:59.227Z,97382.47
2022-12-31T17:46:37.912Z,97376.72
2022-12-31T17:49:13.217Z,97378.09
2022-12-31T17:51:47.717Z,97379.22
2022-12-31T17:54:19.762Z,97380.53
2022-12-31T17:56:53.280Z,97373.16
2022-12-31T17:59:27.427Z,97367.34
2022-12-31T18:02:02.424Z,97372.50
2022-12-31T18:04:34.272Z,97368.63
2022-12-31T18:07:05.891Z,97362.53
2022-12-31T18:09:37.561Z,97363.31
2022-12-31T18:12:12.448Z,97375.41
2022-12-31T18:14:45.922Z,97384.22
2022-12-31T18:17:17.464Z,97379.75
2022-12-31T18:20:06.152Z,97377.13
2022-12-31T18:22:41.090Z,97371.47
2022-12-31T18:25:24.015Z,97373.41
2022-12-31T18:27:55.681Z,97375.78
2022-12-31T18:30:27.377Z,97374.44
2022-12-31T18:32:59.271Z,97378.75
2022-12-31T18:36:07.285Z,97383.53
2022-12-31T18:38:22.789Z,97378.53
2022-12-31T18:40:58.394Z,97380.91
2022-12-31T18:43:30.191Z,97381.44
2022-12-31T18:46:01.936Z,97381.78
2022-12-31T18:48:33.975Z,97388.75
2022-12-31T18:51:05.723Z,97387.97
2022-12-31T18:53:37.627Z,97384.13
2022-12-31T18:56:12.872Z,97401.59
2022-12-31T18:58:46.059Z,97400.78
2022-12-31T19:01:26.815Z,97402.34
2022-12-31T19:04:02.029Z,97398.06
2022-12-31T19:06:33.730Z,97399.00
2022-12-31T19:09:13.278Z,97394.53
2022-12-31T19:11:57.585Z,97398.34
2022-12-31T19:14:29.321Z,97396.75
2022-12-31T19:19:34.312Z,97412.63
2022-12-31T19:22:05.990Z,97410.03
2022-12-31T19:24:37.667Z,97412.63
2022-12-31T19:27:09.967Z,97417.06
2022-12-31T19:29:41.741Z,97423.72
2022-12-31T19:32:13.402Z,97424.72
2022-12-31T19:34:45.151Z,97416.97
2022-12-31T19:37:16.806Z,97424.84
2022-12-31T19:39:48.537Z,97422.31
2022-12-31T19:42:20.157Z,97422.47
2022-12-31T19:44:51.790Z,97416.50
2022-12-31T19:47:23.471Z,97419.72
2022-12-31T19:49:55.214Z,97427.41
2022-12-31T19:52:26.816Z,97422.09
2022-12-31T19:54:58.426Z,97424.91
2022-12-31T19:57:30.059Z,97422.47
2022-12-31T20:00:01.731Z,97426.13
2022-12-31T20:02:46.060Z,97420.59
2022-12-31T20:05:19.004Z,97426.38
2022-12-31T20:07:50.929Z,97426.97
2022-12-31T20:10:22.725Z,97426.44
2022-12-31T20:12:54.585Z,97437.19
2022-12-31T20:15:26.397Z,97436.63
2022-12-31T20:17:58.866Z,97433.56
2022-12-31T20:20:31.099Z,97437.81
2022-12-31T20:23:02.686Z,97443.66
2022-12-31T20:25:34.291Z,97435.75
2022-12-31T20:28:05.887Z,97445.38
2022-12-31T20:30:38.841Z,97444.81
2022-12-31T20:33:15.789Z,97445.81
2022-12-31T20:35:51.360Z,97454.38
2022-12-31T20:38:22.986Z,97441.13
2022-12-31T20:40:54.558Z,97439.44
2022-12-31T20:43:30.588Z,97447.66
2022-12-31T20:46:15.936Z,97455.31
2022-12-31T20:48:49.900Z,97443.94
2022-12-31T20:51:23.469Z,97445.91
2022-12-31T20:54:01.631Z,97446.91
2022-12-31T20:56:35.709Z,97447.47
2022-12-31T20:59:08.781Z,97446.97
2022-12-31T21:02:19.579Z,97454.97
2022-12-31T21:04:32.363Z,97454.38
2022-12-31T21:07:04.300Z,97453.50
2022-12-31T21:09:35.846Z,97459.59
2022-12-31T21:12:10.853Z,97454.50
2022-12-31T21:14:44.846Z,97454.81
2022-12-31T21:17:16.718Z,97454.91
2022-12-31T21:19:48.339Z,97453.81
2022-12-31T21:22:20.568Z,97458.59
2022-12-31T21:24:52.216Z,97464.91
2022-12-31T21:27:23.972Z,97461.75
2022-12-31T21:30:20.068Z,97459.97
2022-12-31T21:32:47.999Z,97462.94
2022-12-31T21:38:11.163Z,97457.34
2022-12-31T21:40:42.768Z,97466.00
2022-12-31T21:43:15.593Z,97459.22
2022-12-31T21:45:47.178Z,97456.25
2022-12-31T21:48:18.724Z,97460.16
2022-12-31T21:50:53.324Z,97465.97
2022-12-31T21:53:30.564Z,97470.53
2022-12-31T21:56:09.396Z,97468.78
2022-12-31T21:58:44.421Z,97472.56
2022-12-31T22:01:20.195Z,97472.56
2022-12-31T22:03:52.035Z,97484.31
2022-12-31T22:06:24.870Z,97480.75
2022-12-31T22:08:56.940Z,97483.66
2022-12-31T22:11:28.977Z,97492.91
2022-12-31T22:14:01.814Z,97496.41
2022-12-31T22:16:33.556Z,97479.53
2022-12-31T22:19:05.295Z,97487.47
2022-12-31T22:21:36.919Z,97491.78
2022-12-31T22:24:08.716Z,97498.19
2022-12-31T22:26:44.804Z,97504.06
2022-12-31T22:29:18.383Z,97505.16
2022-12-31T22:31:50.176Z,97510.09
2022-12-31T22:34:21.779Z,97509.63
2022-12-31T22:36:53.425Z,97507.72
2022-12-31T22:39:43.391Z,97503.75
2022-12-31T22:42:15.897Z,97514.66
2022-12-31T22:44:47.510Z,97512.53
2022-12-31T22:47:19.140Z,97512.53
2022-12-31T22:49:50.878Z,97511.66
2022-12-31T22:52:22.778Z,97524.69
2022-12-31T22:54:54.395Z,97520.09
2022-12-31T22:57:26.190Z,97521.50
2022-12-31T22:59:57.777Z,97531.47
2022-12-31T23:02:29.484Z,97525.56
2022-12-31T23:05:15.423Z,97523.72
2022-12-31T23:07:47.942Z,97523.06
2022-12-31T23:10:19.568Z,97517.97
2022-12-31T23:12:51.166Z,97521.44
2022-12-31T23:15:22.885Z,97520.03
2022-12-31T23:17:54.597Z,97515.00
2022-12-31T23:20:26.368Z,97518.38
2022-12-31T23:22:58.187Z,97521.78
2022-12-31T23:25:41.674Z,97523.56
2022-12-31T23:28:16.912Z,97521.25
2022-12-31T23:30:49.744Z,97519.97
2022-12-31T23:33:24.729Z,97529.81
2022-12-31T23:36:05.091Z,97524.50
2022-12-31T23:38:36.736Z,97521.34
2022-12-31T23:41:16.211Z,97535.25
2022-12-31T23:43:49.011Z,97532.88
2022-12-31T23:46:20.689Z,97536.84
2022-12-31T23:48:52.733Z,97538.94
2022-12-31T23:51:24.408Z,97555.75
2022-12-31T23:53:56.160Z,97545.03
2022-12-31T23:56:27.923Z,97540.63
2022-12-31T23:59:00.145Z,97539.41
